Time;durP1;ratioP1;P1;durP2;ratioP2;P2;SDS_P1;SDS_P2;PMS_P1;PMS_P2;Temp;Humidity;BMP_temperature;BMP_pressure;BME280_temperature;BME280_humidity;BME280_pressure;Samples;Min_cycle;Max_cycle;Signal;HPM_P1;HPM_P2
2023/01/10 00:01:09;;;;;;;18.23;5.77;;;4.10;99.90;;;;;;5051848;28;20127;-83
2023/01/10 00:03:43;;;;;;;25.00;8.57;;;5.70;99.90;;;;;;5051802;28;20057;-83
2023/01/10 00:06:08;;;;;;;15.03;5.27;;;6.80;99.90;;;;;;5033239;28;20492;-83
2023/01/10 00:08:45;;;;;;;17.73;5.10;;;4.80;99.90;;;;;;5052174;28;20051;-83
2023/01/10 00:17:10;;;;;;;15.23;4.40;;;4.50;99.90;;;;;;5033629;28;20055;-83
2023/01/10 00:19:39;;;;;;;20.30;6.50;;;4.20;99.90;;;;;;5033040;28;20124;-83
2023/01/10 00:22:06;;;;;;;19.67;7.23;;;4.00;99.90;;;;;;5051908;28;20049;-83
2023/01/10 00:24:38;;;;;;;13.20;3.37;;;6.70;99.90;;;;;;5035479;28;20135;-84
2023/01/10 00:27:16;;;;;;;23.73;8.00;;;4.10;99.90;;;;;;5037223;28;20491;-83
2023/01/10 00:30:00;;;;;;;19.03;4.17;;;4.40;99.90;;;;;;5050410;28;20056;-83
2023/01/10 00:32:28;;;;;;;22.52;8.60;;;6.00;99.90;;;;;;5036899;28;20045;-83
2023/01/10 00:35:05;;;;;;;19.00;5.43;;;4.30;99.90;;;;;;5055381;28;20044;-83
2023/01/10 00:37:31;;;;;;;18.90;4.10;;;4.60;99.90;;;;;;5037306;28;20052;-83
2023/01/10 00:40:10;;;;;;;16.37;4.70;;;5.10;99.90;;;;;;5054731;28;20059;-83
2023/01/10 00:45:34;;;;;;;18.30;4.83;;;4.30;99.90;;;;;;5036730;28;20048;-83
2023/01/10 00:48:02;;;;;;;21.90;6.10;;;3.20;99.90;;;;;;5053160;28;20049;-83
2023/01/10 00:50:30;;;;;;;22.40;5.10;;;4.60;99.90;;;;;;5009586;28;20034;-83
2023/01/10 00:55:58;;;;;;;23.70;4.77;;;4.40;99.90;;;;;;4978999;28;20085;-83
2023/01/10 00:58:24;;;;;;;19.80;5.83;;;5.80;99.90;;;;;;4978198;28;20431;-84
2023/01/10 01:00:55;;;;;;;20.40;5.30;;;6.40;99.90;;;;;;4993174;28;20115;-83
2023/01/10 01:03:22;;;;;;;20.30;5.10;;;4.70;99.90;;;;;;4976805;28;20047;-83
2023/01/10 01:05:56;;;;;;;23.63;5.10;;;5.40;99.90;;;;;;4976810;28;20074;-83
2023/01/10 01:08:31;;;;;;;17.23;4.60;;;5.20;99.90;;;;;;4992249;28;20054;-83
2023/01/10 01:11:09;;;;;;;19.33;4.73;;;5.10;99.90;;;;;;4977149;28;20143;-83
2023/01/10 01:13:55;;;;;;;20.93;4.70;;;4.70;99.90;;;;;;4992939;28;20109;-83
2023/01/10 01:16:21;;;;;;;20.73;4.47;;;4.70;99.90;;;;;;4975817;28;20379;-83
2023/01/10 01:18:49;;;;;;;24.03;4.80;;;5.60;99.90;;;;;;5051387;23;20053;-83
2023/01/10 01:21:15;;;;;;;20.73;5.77;;;4.60;99.90;;;;;;5061111;22;20048;-83
2023/01/10 01:23:41;;;;;;;15.47;4.87;;;4.30;99.90;;;;;;5084354;22;20044;-83
2023/01/10 01:26:07;;;;;;;18.97;4.17;;;4.80;99.90;;;;;;5036336;28;20079;-83
2023/01/10 01:28:32;;;;;;;17.67;5.27;;;4.70;99.90;;;;;;5018934;28;20049;-83
2023/01/10 01:31:08;;;;;;;20.50;4.87;;;4.70;99.90;;;;;;5036914;28;20050;-83
2023/01/10 01:33:52;;;;;;;18.83;4.60;;;4.80;99.90;;;;;;5036383;28;20044;-83
2023/01/10 01:36:29;;;;;;;18.65;4.63;;;4.60;99.90;;;;;;5052699;28;20053;-83
2023/01/10 01:38:55;;;;;;;23.80;5.13;;;4.50;99.90;;;;;;5036612;28;20045;-83
2023/01/10 01:44:42;;;;;;;23.70;5.33;;;6.50;99.90;;;;;;5053009;28;20052;-83
2023/01/10 01:47:26;;;;;;;16.57;4.50;;;4.90;99.90;;;;;;5036141;28;20049;-83
2023/01/10 01:50:05;;;;;;;18.55;4.90;;;5.60;99.90;;;;;;5035186;28;20108;-83
2023/01/10 01:52:55;;;;;;;21.17;4.57;;;5.00;99.90;;;;;;5035383;28;20116;-83
2023/01/10 01:55:37;;;;;;;19.47;4.80;;;6.20;99.90;;;;;;5053308;28;20048;-83
2023/01/10 01:58:19;;;;;;;24.67;5.47;;;5.20;99.90;;;;;;5035094;28;20048;-84
2023/01/10 02:00:57;;;;;;;22.50;4.83;;;3.60;99.90;;;;;;5035810;28;20045;-84
2023/01/10 02:03:32;;;;;;;20.17;4.73;;;4.70;99.90;;;;;;5035800;28;20439;-83
2023/01/10 02:05:58;;;;;;;19.60;3.97;;;6.50;99.90;;;;;;5035924;28;20045;-84
2023/01/10 02:08:33;;;;;;;22.53;4.20;;;4.70;99.90;;;;;;5053294;28;20049;-83
2023/01/10 02:11:09;;;;;;;19.77;4.43;;;4.50;99.90;;;;;;5034963;28;20485;-84
2023/01/10 02:13:48;;;;;;;21.13;4.37;;;4.50;99.90;;;;;;5053976;28;20049;-83
2023/01/10 02:16:17;;;;;;;20.43;4.53;;;4.80;99.90;;;;;;5053080;28;20045;-83
2023/01/10 02:18:56;;;;;;;22.10;4.23;;;5.30;99.90;;;;;;5034912;28;20076;-83
2023/01/10 02:21:42;;;;;;;17.23;4.10;;;5.70;99.90;;;;;;5052757;28;20041;-83
2023/01/10 02:24:53;;;;;;;20.53;4.27;;;5.50;99.90;;;;;;5052081;28;20118;-84
2023/01/10 02:27:40;;;;;;;21.83;4.53;;;4.70;99.90;;;;;;5053339;28;20041;-83
2023/01/10 02:30:56;;;;;;;17.87;4.10;;;4.50;99.90;;;;;;5031181;28;20088;-83
2023/01/10 02:34:13;;;;;;;18.07;3.80;;;5.50;99.90;;;;;;5052198;28;20091;-83
2023/01/10 02:37:25;;;;;;;20.93;3.60;;;4.40;99.90;;;;;;4971826;28;20126;-83
2023/01/10 02:40:17;;;;;;;19.03;4.07;;;4.40;99.90;;;;;;4953947;28;20407;-83
2023/01/10 02:43:15;;;;;;;23.87;4.53;;;4.50;99.90;;;;;;4972266;28;20138;-83
2023/01/10 02:45:52;;;;;;;19.30;4.90;;;4.50;99.90;;;;;;5010782;23;20078;-83
2023/01/10 02:48:20;;;;;;;17.33;4.13;;;4.60;99.90;;;;;;5012516;28;20053;-83
2023/01/10 02:51:08;;;;;;;20.27;4.30;;;4.50;99.90;;;;;;4995375;28;20056;-83
2023/01/10 02:53:44;;;;;;;17.23;3.93;;;4.50;99.90;;;;;;4994305;28;20176;-83
2023/01/10 02:56:17;;;;;;;20.07;4.90;;;4.50;99.90;;;;;;4995270;28;20107;-83
2023/01/10 02:59:04;;;;;;;21.17;4.33;;;4.40;99.90;;;;;;4995837;28;20042;-83
2023/01/10 03:01:47;;;;;;;22.23;4.03;;;4.30;99.90;;;;;;5011090;28;20132;-83
2023/01/10 03:04:39;;;;;;;17.37;4.07;;;4.30;99.90;;;;;;4994859;28;20042;-83
2023/01/10 03:07:13;;;;;;;20.87;4.27;;;4.30;99.90;;;;;;4994009;28;20064;-83
2023/01/10 03:09:55;;;;;;;15.57;4.40;;;4.20;99.90;;;;;;4995281;28;20048;-83
2023/01/10 03:12:46;;;;;;;19.60;4.10;;;4.20;99.90;;;;;;4994807;28;20092;-83
2023/01/10 03:15:15;;;;;;;18.60;4.37;;;4.20;99.90;;;;;;5011767;28;20482;-83
2023/01/10 03:17:44;;;;;;;18.80;4.43;;;4.30;99.90;;;;;;4995235;28;20041;-83
2023/01/10 03:20:10;;;;;;;22.37;4.40;;;4.40;99.90;;;;;;5012070;28;20485;-83
2023/01/10 03:22:39;;;;;;;19.23;4.43;;;4.40;99.90;;;;;;4994272;28;20050;-83
2023/01/10 03:25:09;;;;;;;19.67;4.30;;;4.40;99.90;;;;;;4996398;28;20034;-83
2023/01/10 03:27:50;;;;;;;21.17;4.20;;;4.30;99.90;;;;;;4995319;28;20072;-83
2023/01/10 03:30:27;;;;;;;16.70;4.30;;;4.40;99.90;;;;;;4993902;28;20421;-83
2023/01/10 03:32:54;;;;;;;18.17;4.23;;;4.40;99.90;;;;;;4994975;28;20046;-83
2023/01/10 03:35:23;;;;;;;19.10;4.07;;;4.40;99.90;;;;;;4993189;28;20050;-83
2023/01/10 03:38:01;;;;;;;17.93;3.83;;;4.40;99.90;;;;;;4994984;28;20050;-83
2023/01/10 03:40:29;;;;;;;23.57;4.40;;;4.40;99.90;;;;;;5004812;23;20045;-83
2023/01/10 03:46:07;;;;;;;20.27;3.70;;;4.40;99.90;;;;;;5032417;28;20128;-83
2023/01/10 03:48:37;;;;;;;16.10;3.73;;;5.10;99.90;;;;;;5032108;28;20046;-83
2023/01/10 03:51:04;;;;;;;19.33;4.70;;;4.50;99.90;;;;;;5013754;28;20049;-83
2023/01/10 03:53:31;;;;;;;16.77;3.73;;;4.60;99.90;;;;;;5031998;28;20045;-83
2023/01/10 03:55:57;;;;;;;18.63;3.53;;;4.60;99.90;;;;;;5014972;28;20092;-84
2023/01/10 03:58:22;;;;;;;17.17;3.47;;;4.60;99.90;;;;;;5033334;28;20038;-83
2023/01/10 04:00:48;;;;;;;15.37;4.40;;;4.60;99.90;;;;;;5055925;28;20045;-84
2023/01/10 04:03:15;;;;;;;20.00;3.63;;;4.60;99.90;;;;;;5020168;28;20436;-84
2023/01/10 04:05:41;;;;;;;17.90;3.73;;;4.50;99.90;;;;;;5020731;28;20061;-83
2023/01/10 04:08:07;;;;;;;15.43;3.50;;;4.50;99.90;;;;;;5025713;28;20049;-83
2023/01/10 04:10:33;;;;;;;16.20;3.27;;;4.50;99.90;;;;;;5215608;23;20069;-83
2023/01/10 04:13:00;;;;;;;18.83;3.37;;;4.40;99.90;;;;;;5018436;28;20049;-83
2023/01/10 04:15:26;;;;;;;19.87;3.47;;;4.40;99.90;;;;;;5018080;28;20068;-84
2023/01/10 04:17:51;;;;;;;16.70;3.63;;;4.40;99.90;;;;;;5017470;28;20492;-83
2023/01/10 04:20:17;;;;;;;17.03;3.40;;;4.40;99.90;;;;;;5035496;28;20041;-83
2023/01/10 04:22:44;;;;;;;13.77;3.30;;;5.80;99.90;;;;;;5017842;28;20041;-83
2023/01/10 04:25:10;;;;;;;17.67;3.60;;;4.40;99.90;;;;;;5034913;28;20124;-84
2023/01/10 04:27:44;;;;;;;15.53;3.83;;;4.30;99.90;;;;;;5017964;28;20136;-84
2023/01/10 04:30:10;;;;;;;13.33;3.37;;;4.20;99.90;;;;;;5017644;28;20094;-84
2023/01/10 04:32:46;;;;;;;14.40;3.30;;;3.30;99.90;;;;;;5034952;28;20428;-83
2023/01/10 04:35:12;;;;;;;18.93;3.50;;;4.00;99.90;;;;;;5019573;28;20042;-83
2023/01/10 04:37:43;;;;;;;17.63;3.77;;;6.40;99.90;;;;;;5017859;28;20110;-83
2023/01/10 04:40:10;;;;;;;16.47;3.77;;;4.60;99.90;;;;;;5016805;28;20049;-83
2023/01/10 04:42:44;;;;;;;17.10;4.00;;;4.70;99.90;;;;;;5035484;28;20049;-83
2023/01/10 04:45:25;;;;;;;17.30;3.70;;;4.30;99.90;;;;;;5017193;28;20181;-84
2023/01/10 04:48:09;;;;;;;18.37;3.70;;;4.30;99.90;;;;;;5035490;28;20042;-84
2023/01/10 04:50:51;;;;;;;18.55;4.47;;;4.70;99.90;;;;;;5035191;28;20132;-83
2023/01/10 04:53:29;;;;;;;17.67;3.80;;;6.20;99.90;;;;;;5016298;28;20485;-84
2023/01/10 04:56:17;;;;;;;22.17;3.77;;;5.10;99.90;;;;;;5017279;28;20504;-84
2023/01/10 04:58:58;;;;;;;20.13;3.70;;;4.60;99.90;;;;;;5035437;28;20045;-83
2023/01/10 05:01:24;;;;;;;19.27;3.80;;;5.00;99.90;;;;;;5015544;28;20125;-83
2023/01/10 05:04:03;;;;;;;17.93;3.90;;;4.90;99.90;;;;;;5016795;28;20049;-83
2023/01/10 05:06:28;;;;;;;16.60;3.30;;;5.00;99.90;;;;;;5090927;23;20053;-83
2023/01/10 05:08:55;;;;;;;23.30;4.53;;;5.00;99.90;;;;;;5055503;28;20055;-84
2023/01/10 05:11:20;;;;;;;24.70;4.13;;;5.00;99.90;;;;;;5054384;28;20064;-83
2023/01/10 05:13:46;;;;;;;23.47;4.50;;;4.90;99.90;;;;;;5036150;28;20045;-83
2023/01/10 05:16:11;;;;;;;18.77;3.63;;;4.90;99.90;;;;;;5054511;28;20048;-83
2023/01/10 05:19:01;;;;;;;20.60;4.30;;;5.00;99.90;;;;;;5054421;28;20392;-83
2023/01/10 05:21:28;;;;;;;25.63;4.60;;;4.90;99.90;;;;;;5053125;28;20045;-83
2023/01/10 05:24:00;;;;;;;20.80;4.27;;;4.10;99.90;;;;;;5036701;28;20045;-83
2023/01/10 05:26:26;;;;;;;22.17;4.63;;;5.30;99.90;;;;;;5054162;28;20040;-83
2023/01/10 05:29:01;;;;;;;19.03;4.30;;;6.40;99.90;;;;;;5053857;28;20049;-83
2023/01/10 05:31:36;;;;;;;23.53;4.60;;;4.70;99.90;;;;;;5054258;28;20507;-83
2023/01/10 05:34:19;;;;;;;21.63;4.80;;;4.70;99.90;;;;;;5036624;28;20052;-83
2023/01/10 05:36:56;;;;;;;21.23;5.37;;;5.20;99.90;;;;;;5053502;28;20049;-83
2023/01/10 05:39:22;;;;;;;20.07;4.90;;;4.80;99.90;;;;;;5053780;28;20790;-83
2023/01/10 05:42:00;;;;;;;19.47;4.23;;;5.70;99.90;;;;;;5035579;28;20041;-83
2023/01/10 05:44:38;;;;;;;19.43;4.60;;;4.50;99.90;;;;;;5054385;28;20560;-84
2023/01/10 05:47:24;;;;;;;19.60;4.47;;;4.60;99.90;;;;;;5037174;28;20467;-84
2023/01/10 05:53:43;;;;;;;20.23;4.50;;;5.30;99.90;;;;;;5054672;28;20068;-84
2023/01/10 05:56:09;;;;;;;20.50;4.50;;;4.40;99.90;;;;;;5035033;28;20048;-84
2023/01/10 05:58:35;;;;;;;22.03;5.17;;;6.30;99.90;;;;;;5036355;28;20060;-84
2023/01/10 06:01:18;;;;;;;20.87;4.80;;;4.90;99.90;;;;;;5036647;28;20072;-84
2023/01/10 06:03:49;;;;;;;19.98;4.40;;;4.90;99.90;;;;;;5035313;28;20076;-83
2023/01/10 06:06:15;;;;;;;19.87;4.47;;;7.00;99.90;;;;;;5053327;28;20037;-84
2023/01/10 06:08:55;;;;;;;26.43;5.07;;;4.90;99.90;;;;;;5053378;28;20044;-84
2023/01/10 06:11:37;;;;;;;22.90;5.00;;;6.10;99.90;;;;;;5034566;28;20041;-83
2023/01/10 06:14:21;;;;;;;23.13;5.70;;;4.90;99.90;;;;;;5053549;28;20051;-84
2023/01/10 06:16:47;;;;;;;16.48;5.63;;;4.90;99.90;;;;;;5048397;28;20048;-83
2023/01/10 06:19:22;;;;;;;19.63;4.90;;;4.90;99.90;;;;;;5053563;28;20045;-83
2023/01/10 06:22:02;;;;;;;23.57;5.17;;;5.50;99.90;;;;;;5035592;28;20476;-84
2023/01/10 06:24:37;;;;;;;18.23;5.30;;;5.60;99.90;;;;;;5052243;28;20144;-83
2023/01/10 06:27:09;;;;;;;19.97;5.73;;;5.10;99.90;;;;;;5035371;28;20045;-83
2023/01/10 06:29:50;;;;;;;22.90;4.90;;;4.60;99.90;;;;;;5034035;28;20045;-83
2023/01/10 06:32:15;;;;;;;24.90;5.77;;;4.40;99.90;;;;;;5052363;28;20044;-83
2023/01/10 06:34:41;;;;;;;19.27;5.37;;;5.50;99.90;;;;;;5034707;28;20048;-83
2023/01/10 06:37:07;;;;;;;24.70;5.30;;;5.20;99.90;;;;;;5053071;28;20124;-83
2023/01/10 06:39:33;;;;;;;18.80;5.27;;;5.30;99.90;;;;;;5046487;28;20049;-84
2023/01/10 06:41:59;;;;;;;23.30;5.50;;;5.00;99.90;;;;;;5034793;28;20056;-83
2023/01/10 06:44:34;;;;;;;24.93;4.93;;;6.90;99.90;;;;;;5052904;28;20037;-84
2023/01/10 06:46:59;;;;;;;21.00;4.63;;;4.90;99.90;;;;;;5034522;28;20048;-84
2023/01/10 06:49:28;;;;;;;21.30;4.83;;;5.10;99.90;;;;;;5047767;28;20378;-84
2023/01/10 06:52:20;;;;;;;20.20;4.93;;;5.10;99.90;;;;;;5014430;28;20142;-84
2023/01/10 06:54:55;;;;;;;20.70;5.20;;;5.00;99.90;;;;;;5033491;28;20053;-84
2023/01/10 06:57:21;;;;;;;19.50;5.03;;;4.70;99.90;;;;;;5025606;28;20137;-85
2023/01/10 06:59:51;;;;;;;22.90;6.80;;;4.90;99.90;;;;;;5014677;28;20545;-84
2023/01/10 07:02:16;;;;;;;19.50;5.40;;;4.60;99.90;;;;;;5014809;28;20052;-83
2023/01/10 07:04:57;;;;;;;22.17;5.07;;;5.80;99.90;;;;;;5033225;28;20034;-83
2023/01/10 07:07:35;;;;;;;;;;;7.20;99.90;;;;;;5014922;28;20107;-82
2023/01/10 07:10:13;;;;;;;;;;;5.70;99.90;;;;;;5015755;28;20005;-82
2023/01/10 07:12:38;;;;;;;19.40;5.03;;;4.90;99.90;;;;;;5037035;28;19916;-80
2023/01/10 07:15:16;;;;;;;22.10;4.80;;;5.10;99.90;;;;;;5033599;28;20049;-79
2023/01/10 07:17:42;;;;;;;19.03;5.40;;;5.00;99.90;;;;;;5033229;28;20072;-80
2023/01/10 07:20:14;;;;;;;29.93;10.87;;;5.90;99.90;;;;;;5032276;28;20075;-81
2023/01/10 07:22:59;;;;;;;17.57;4.80;;;5.00;99.90;;;;;;5014990;28;20120;-82
2023/01/10 07:25:31;;;;;;;24.73;5.33;;;6.30;99.90;;;;;;5014667;28;20045;-82
2023/01/10 07:27:57;;;;;;;20.00;7.63;;;5.30;99.90;;;;;;5014060;28;20045;-82
2023/01/10 07:30:23;;;;;;;24.23;5.40;;;5.10;99.90;;;;;;5027485;28;20055;-82
2023/01/10 07:32:56;;;;;;;20.47;5.37;;;5.90;99.90;;;;;;5016667;28;20045;-81
2023/01/10 07:35:23;;;;;;;28.25;6.78;;;5.10;99.90;;;;;;5031694;28;20076;-83
2023/01/10 07:37:49;;;;;;;18.30;5.33;;;5.20;99.90;;;;;;5032049;28;20041;-82
2023/01/10 07:40:14;;;;;;;20.00;5.77;;;5.20;99.90;;;;;;5014016;28;20047;-82
2023/01/10 07:42:40;;;;;;;22.80;8.13;;;6.20;99.90;;;;;;5013509;28;20046;-82
2023/01/10 07:45:07;;;;;;;23.80;6.90;;;5.20;99.90;;;;;;5014968;28;20041;-82
2023/01/10 07:47:33;;;;;;;24.90;6.80;;;5.20;99.90;;;;;;5014560;28;20050;-82
2023/01/10 07:49:59;;;;;;;26.93;5.97;;;5.20;99.90;;;;;;5022546;28;20063;-82
2023/01/10 07:52:25;;;;;;;23.90;7.73;;;5.20;99.90;;;;;;5033312;28;20114;-82
2023/01/10 07:54:53;;;;;;;20.63;7.43;;;5.30;99.90;;;;;;5033830;28;20045;-81
2023/01/10 07:57:19;;;;;;;18.07;5.10;;;5.10;99.90;;;;;;5032888;28;20068;-81
2023/01/10 07:59:44;;;;;;;24.47;6.90;;;5.00;99.90;;;;;;5051734;28;20099;-82
2023/01/10 08:02:10;;;;;;;20.23;6.47;;;5.00;99.90;;;;;;5033671;28;20052;-80
2023/01/10 08:04:37;;;;;;;21.77;6.23;;;5.00;99.90;;;;;;5033766;28;20110;-80
2023/01/10 08:07:03;;;;;;;27.47;11.10;;;5.00;99.90;;;;;;5054765;28;20057;-80
2023/01/10 08:09:29;;;;;;;25.60;7.07;;;5.00;99.90;;;;;;5054133;28;20049;-81
2023/01/10 08:11:55;;;;;;;19.50;5.77;;;5.00;99.90;;;;;;5033895;28;20048;-80
2023/01/10 08:14:20;;;;;;;22.63;6.13;;;5.00;99.90;;;;;;5051922;28;20045;-81
2023/01/10 08:16:46;;;;;;;22.77;5.87;;;5.00;99.90;;;;;;5051213;28;20066;-80
2023/01/10 08:19:15;;;;;;;23.47;6.13;;;4.90;99.90;;;;;;5033831;28;20122;-80
2023/01/10 08:21:47;;;;;;;22.20;6.40;;;5.00;99.90;;;;;;5051720;28;20053;-80
2023/01/10 08:24:12;;;;;;;19.57;6.50;;;5.20;99.90;;;;;;5033320;28;20041;-80
2023/01/10 08:26:38;;;;;;;26.73;6.57;;;4.90;99.90;;;;;;5051764;28;20098;-80
2023/01/10 08:29:18;;;;;;;21.50;5.90;;;4.90;99.90;;;;;;5050995;28;20045;-80
2023/01/10 08:31:44;;;;;;;19.90;5.57;;;4.90;99.90;;;;;;5033205;28;20044;-80
2023/01/10 08:34:18;;;;;;;22.93;5.60;;;4.90;99.90;;;;;;5045971;28;20037;-81
2023/01/10 08:36:59;;;;;;;27.67;6.43;;;6.00;99.90;;;;;;5051663;28;20048;-82
2023/01/10 08:39:34;;;;;;;26.97;5.80;;;4.50;99.90;;;;;;5032874;28;20049;-80
2023/01/10 08:42:12;;;;;;;24.03;6.33;;;5.00;99.90;;;;;;5055617;28;20044;-82
2023/01/10 08:44:40;;;;;;;28.70;6.07;;;5.50;99.90;;;;;;5041095;28;20083;-81
2023/01/10 08:47:06;;;;;;;23.93;5.30;;;5.30;99.90;;;;;;5037670;28;20080;-81
2023/01/10 08:49:31;;;;;;;23.33;6.13;;;4.90;99.90;;;;;;5063585;22;20044;-83
2023/01/10 08:51:57;;;;;;;27.13;5.50;;;5.20;99.90;;;;;;5043774;23;20580;-83
2023/01/10 08:54:23;;;;;;;21.70;5.63;;;5.20;99.90;;;;;;5036538;28;20040;-82
2023/01/10 08:56:49;;;;;;;26.27;6.20;;;5.20;99.90;;;;;;5054652;28;20124;-80
2023/01/10 08:59:30;;;;;;;27.07;5.40;;;5.20;99.90;;;;;;5053688;28;20056;-81
2023/01/10 09:01:57;;;;;;;22.57;5.73;;;5.10;99.90;;;;;;5019892;28;20128;-82
2023/01/10 09:04:38;;;;;;;23.53;5.03;;;4.80;99.90;;;;;;5051814;28;20056;-82
2023/01/10 09:07:03;;;;;;;21.27;4.80;;;6.80;99.90;;;;;;5016398;28;20049;-82
2023/01/10 09:09:32;;;;;;;22.57;5.23;;;5.20;99.90;;;;;;5034870;28;20044;-84
2023/01/10 09:12:53;;;;;;;20.87;5.60;;;5.10;99.90;;;;;;5034839;28;20037;-82
2023/01/10 09:14:53;;;;;;;21.70;5.23;;;5.20;99.90;;;;;;5016117;28;20140;-83
2023/01/10 09:17:18;;;;;;;25.80;5.40;;;5.40;99.90;;;;;;5035198;28;20124;-83
2023/01/10 09:19:44;;;;;;;22.97;5.33;;;5.50;99.90;;;;;;5027799;28;20375;-82
2023/01/10 09:22:10;;;;;;;21.20;5.13;;;5.50;99.90;;;;;;5016888;28;20087;-83
2023/01/10 09:24:37;;;;;;;20.13;5.43;;;5.60;99.90;;;;;;5017291;28;20042;-82
2023/01/10 09:27:02;;;;;;;22.83;5.20;;;5.60;99.90;;;;;;5034060;28;20036;-82
2023/01/10 09:29:28;;;;;;;19.37;5.43;;;7.00;99.90;;;;;;5034369;28;20057;-82
2023/01/10 09:31:54;;;;;;;31.43;8.67;;;5.70;99.90;;;;;;5016657;28;20038;-83
2023/01/10 09:34:20;;;;;;;23.53;6.73;;;5.70;99.90;;;;;;5033269;28;20048;-82
2023/01/10 09:36:46;;;;;;;19.50;5.60;;;5.80;99.90;;;;;;5034543;28;20124;-82
2023/01/10 09:39:12;;;;;;;24.00;6.27;;;5.80;99.90;;;;;;5011146;28;20150;-82
2023/01/10 09:41:58;;;;;;;24.20;7.13;;;5.80;99.90;;;;;;5033514;28;20048;-82
2023/01/10 09:44:51;;;;;;;25.47;7.07;;;5.80;99.90;;;;;;5033977;28;20053;-82
2023/01/10 09:47:35;;;;;;;32.23;7.53;;;5.90;99.90;;;;;;5016332;28;20049;-82
2023/01/10 09:50:22;;;;;;;31.25;12.77;;;5.90;99.90;;;;;;5016211;28;20083;-84
2023/01/10 09:53:11;;;;;;;24.20;7.60;;;5.90;99.90;;;;;;5015012;28;20401;-83
2023/01/10 09:55:39;;;;;;;22.33;6.87;;;5.90;99.90;;;;;;5015220;28;20052;-83
2023/01/10 09:58:15;;;;;;;25.07;8.17;;;6.00;99.90;;;;;;5033700;28;20080;-84
2023/01/10 10:01:10;;;;;;;25.50;7.57;;;6.00;99.90;;;;;;5034068;28;20050;-83
2023/01/10 10:03:36;;;;;;;27.90;7.40;;;7.20;99.90;;;;;;5015903;28;20053;-82
2023/01/10 10:06:03;;;;;;;23.53;7.53;;;7.50;99.90;;;;;;5016066;28;20056;-84
2023/01/10 10:08:29;;;;;;;29.30;10.57;;;6.10;99.90;;;;;;5035803;28;20713;-82
2023/01/10 10:11:30;;;;;;;25.37;9.53;;;6.10;99.90;;;;;;5035300;28;20595;-83
2023/01/10 10:14:03;;;;;;;23.97;9.00;;;6.10;99.90;;;;;;5053989;28;20036;-83
2023/01/10 10:16:43;;;;;;;26.27;8.20;;;6.20;99.90;;;;;;5035255;28;20059;-82
2023/01/10 10:19:21;;;;;;;21.77;7.60;;;6.20;99.90;;;;;;5054544;28;20029;-83
2023/01/10 10:22:05;;;;;;;26.97;7.90;;;6.20;99.90;;;;;;5052501;28;20053;-83
2023/01/10 10:24:37;;;;;;;24.02;7.75;;;6.20;99.90;;;;;;5053592;28;20048;-83
2023/01/10 10:27:23;;;;;;;25.53;8.73;;;7.30;99.90;;;;;;5038364;28;20049;-83
2023/01/10 10:30:11;;;;;;;30.53;7.33;;;6.30;99.90;;;;;;5040180;28;20555;-83
2023/01/10 10:33:07;;;;;;;24.20;7.70;;;7.60;99.90;;;;;;5053102;28;20053;-83
2023/01/10 10:35:38;;;;;;;29.70;8.20;;;6.30;99.90;;;;;;5052366;28;20136;-83
2023/01/10 10:38:25;;;;;;;31.67;7.50;;;6.30;99.90;;;;;;5034764;28;20057;-83
2023/01/10 10:40:53;;;;;;;29.70;8.43;;;6.30;99.90;;;;;;5032715;28;20045;-83
2023/01/10 10:43:23;;;;;;;29.30;8.97;;;6.40;99.90;;;;;;5034378;28;20488;-83
2023/01/10 10:45:59;;;;;;;29.13;8.33;;;6.40;99.90;;;;;;5033765;28;20404;-83
2023/01/10 10:48:44;;;;;;;;;;;6.40;99.90;;;;;;5035070;28;20057;-83
2023/01/10 10:51:17;;;;;;;26.73;7.97;;;6.40;99.90;;;;;;5025628;28;19921;-82
2023/01/10 10:53:47;;;;;;;25.83;7.03;;;7.90;99.90;;;;;;5010119;28;20044;-82
2023/01/10 10:56:24;;;;;;;21.90;8.23;;;6.40;99.90;;;;;;5014782;28;20049;-82
2023/01/10 10:58:55;;;;;;;26.10;7.97;;;6.50;99.90;;;;;;5032311;28;20504;-83
2023/01/10 11:01:22;;;;;;;25.77;8.90;;;6.40;99.90;;;;;;5015055;28;20045;-82
2023/01/10 11:04:35;;;;;;;25.70;7.23;;;7.90;99.90;;;;;;5015235;28;20482;-82
2023/01/10 11:07:10;;;;;;;21.07;6.40;;;6.50;99.90;;;;;;4998735;28;20046;-83
2023/01/10 11:12:17;;;;;;;21.67;7.07;;;6.20;99.90;;;;;;4990089;28;20054;-82
2023/01/10 11:14:50;;;;;;;25.90;6.70;;;7.30;99.90;;;;;;4991228;28;20121;-82
2023/01/10 11:18:10;;;;;;;20.33;6.50;;;6.50;99.90;;;;;;4990726;28;20046;-83
2023/01/10 11:21:14;;;;;;;23.27;7.40;;;6.70;99.90;;;;;;4985338;28;20057;-82
2023/01/10 11:23:39;;;;;;;25.97;6.43;;;5.90;99.90;;;;;;4993199;28;20043;-82
2023/01/10 11:26:26;;;;;;;18.10;5.67;;;7.20;99.90;;;;;;5014667;28;20052;-83
2023/01/10 11:29:41;;;;;;;19.13;5.47;;;6.10;99.90;;;;;;5031468;28;20568;-83
2023/01/10 11:32:29;;;;;;;20.07;4.80;;;6.40;99.90;;;;;;5032819;28;20042;-83
2023/01/10 11:35:27;;;;;;;21.50;5.90;;;5.80;99.90;;;;;;5031761;28;20276;-83
2023/01/10 11:38:05;;;;;;;24.40;5.70;;;6.50;99.90;;;;;;5014954;28;20148;-83
2023/01/10 11:40:37;;;;;;;24.27;5.70;;;6.40;99.90;;;;;;5016389;28;20846;-84
2023/01/10 11:43:26;;;;;;;23.53;5.77;;;6.70;99.90;;;;;;5039495;28;20497;-82
2023/01/10 11:46:15;;;;;;;17.83;5.33;;;6.70;99.90;;;;;;5077970;23;20059;-83
2023/01/10 11:49:21;;;;;;;;;;;;;;;;;;;;;
2023/01/10 11:52:27;;;;;;;20.30;5.43;;;6.50;99.90;;;;;;5025234;28;20186;-82
2023/01/10 11:55:40;;;;;;;22.77;5.90;;;6.50;99.90;;;;;;5073739;23;20054;-83
2023/01/10 11:58:32;;;;;;;28.53;6.07;;;6.80;99.90;;;;;;4941896;28;20128;-83
2023/01/10 12:04:16;;;;;;;24.67;5.60;;;6.70;99.90;;;;;;5056499;23;20060;-83
2023/01/10 12:07:08;;;;;;;22.93;5.30;;;6.50;99.90;;;;;;5034176;28;20056;-82
2023/01/10 12:09:57;;;;;;;20.63;6.23;;;8.10;99.90;;;;;;5034071;28;20083;-82
2023/01/10 12:12:51;;;;;;;25.17;5.50;;;6.40;99.90;;;;;;5033992;28;20080;-82
2023/01/10 12:15:38;;;;;;;21.20;5.60;;;5.80;99.90;;;;;;5047056;28;20513;-82
2023/01/10 12:18:05;;;;;;;;;;;6.50;99.90;;;;;;5041819;28;20128;-83
2023/01/10 12:20:51;;;;;;;21.60;5.20;;;6.50;99.90;;;;;;5053810;28;20299;-82
2023/01/10 12:23:35;;;;;;;18.47;4.73;;;7.40;99.90;;;;;;5055248;28;20048;-82
2023/01/10 12:26:01;;;;;;;25.67;5.33;;;6.50;99.90;;;;;;5037832;28;20049;-82
2023/01/10 12:28:29;;;;;;;20.93;5.27;;;7.10;99.90;;;;;;5050291;28;20037;-81
2023/01/10 12:30:58;;;;;;;20.50;4.70;;;8.00;99.90;;;;;;5054865;28;20056;-81
2023/01/10 12:33:47;;;;;;;18.97;5.47;;;7.60;99.90;;;;;;5055285;28;20045;-81
2023/01/10 12:36:48;;;;;;;21.30;5.33;;;6.40;99.90;;;;;;5037730;28;20500;-81
2023/01/10 12:39:32;;;;;;;22.40;4.80;;;6.40;99.90;;;;;;5037274;28;20045;-81
2023/01/10 12:45:04;;;;;;;19.43;4.47;;;6.30;99.90;;;;;;5036497;28;20451;-82
2023/01/10 12:48:02;;;;;;;25.77;4.90;;;6.30;99.90;;;;;;5036859;28;20048;-82
2023/01/10 12:50:38;;;;;;;21.53;5.27;;;6.30;99.90;;;;;;5054746;28;20615;-82
2023/01/10 12:53:12;;;;;;;22.30;5.10;;;6.30;99.90;;;;;;5037230;28;20037;-82
2023/01/10 12:55:43;;;;;;;23.13;5.77;;;6.30;99.90;;;;;;5037241;28;20535;-82
2023/01/10 12:58:20;;;;;;;26.77;6.03;;;7.00;99.90;;;;;;5035676;28;20045;-82
2023/01/10 13:00:50;;;;;;;26.20;5.47;;;6.30;99.90;;;;;;5037603;28;20033;-82
2023/01/10 13:03:20;;;;;;;24.33;6.33;;;6.30;99.90;;;;;;5036088;28;20053;-82
2023/01/10 13:05:47;;;;;;;21.40;5.93;;;6.20;99.90;;;;;;5054133;28;20123;-82
2023/01/10 13:08:16;;;;;;;24.30;6.30;;;7.50;99.90;;;;;;5053556;28;20465;-82
2023/01/10 13:10:44;;;;;;;24.07;6.83;;;6.20;99.90;;;;;;5044214;28;20087;-82
2023/01/10 13:13:13;;;;;;;20.83;6.20;;;6.20;99.90;;;;;;5034408;28;20037;-83
2023/01/10 13:16:06;;;;;;;23.23;6.03;;;6.20;99.90;;;;;;5036833;28;20037;-83
2023/01/10 13:18:33;;;;;;;25.93;7.10;;;6.60;99.90;;;;;;5027801;28;20527;-83
2023/01/10 13:21:12;;;;;;;21.10;6.03;;;7.00;99.90;;;;;;5058060;28;20230;-82
2023/01/10 13:24:01;;;;;;;24.97;6.63;;;6.40;99.90;;;;;;5024489;28;20053;-82
2023/01/10 13:26:47;;;;;;;26.10;5.40;;;6.10;99.90;;;;;;5036112;28;20045;-82
2023/01/10 13:29:25;;;;;;;26.13;5.87;;;6.20;99.90;;;;;;5017309;28;20129;-82
2023/01/10 13:31:56;;;;;;;23.07;5.67;;;6.10;99.90;;;;;;5031890;28;20049;-82
2023/01/10 13:34:25;;;;;;;20.17;5.47;;;6.90;99.90;;;;;;5036059;28;20045;-82
2023/01/10 13:36:58;;;;;;;24.60;5.30;;;6.10;99.90;;;;;;5052651;28;20044;-82
2023/01/10 13:39:31;;;;;;;24.20;5.40;;;6.10;99.90;;;;;;5051529;28;20559;-82
2023/01/10 13:45:10;;;;;;;19.88;5.18;;;6.10;99.90;;;;;;5035511;28;20049;-82
2023/01/10 13:47:39;;;;;;;23.60;5.63;;;7.10;99.90;;;;;;5021083;28;20092;-82
2023/01/10 13:50:23;;;;;;;23.87;5.03;;;6.10;99.90;;;;;;5031839;28;20045;-82
2023/01/10 13:52:49;;;;;;;;;;;6.10;99.90;;;;;;5036749;28;20037;-82
2023/01/10 13:55:35;;;;;;;24.33;6.20;;;6.40;99.90;;;;;;5052868;28;19916;-82
2023/01/10 14:02:27;;;;;;;26.33;6.47;;;6.10;99.90;;;;;;5053623;28;20052;-82
2023/01/10 14:07:47;;;;;;;19.30;4.67;;;6.10;99.90;;;;;;4991004;28;20041;-82
2023/01/10 14:10:23;;;;;;;25.83;4.63;;;6.30;99.90;;;;;;4992433;28;20053;-82
2023/01/10 14:12:55;;;;;;;20.70;4.10;;;6.00;99.90;;;;;;4988079;28;20030;-82